createdAt,value
2018-03-26T00:01:17.034Z,27.47
2018-03-26T00:07:22.729Z,25.50
2018-03-26T00:13:28.257Z,29.13
2018-03-26T00:19:32.763Z,25.50
2018-03-26T00:25:37.229Z,26.57
2018-03-26T00:31:41.782Z,25.97
2018-03-26T00:37:46.410Z,26.50
2018-03-26T00:43:51.299Z,28.20
2018-03-26T00:49:56.783Z,25.40
2018-03-26T00:56:02.147Z,27.57
2018-03-26T01:02:06.790Z,27.30
2018-03-26T01:08:11.559Z,27.33
2018-03-26T01:14:16.284Z,25.53
2018-03-26T01:20:21.684Z,25.67
2018-03-26T01:26:26.179Z,25.57
2018-03-26T01:32:30.721Z,24.77
2018-03-26T01:38:35.960Z,26.57
2018-03-26T01:44:40.453Z,25.00
2018-03-26T01:50:44.927Z,25.83
2018-03-26T01:56:50.646Z,23.80
2018-03-26T02:02:55.277Z,23.30
2018-03-26T02:08:59.742Z,24.90
2018-03-26T02:15:04.989Z,23.87
2018-03-26T02:21:09.610Z,25.80
2018-03-26T02:27:15.502Z,23.53
2018-03-26T02:33:20.762Z,25.30
2018-03-26T02:39:25.238Z,25.40
2018-03-26T02:45:29.782Z,22.87
2018-03-26T02:51:35.030Z,24.40
2018-03-26T02:57:39.601Z,24.23
2018-03-26T03:03:44.223Z,24.50
2018-03-26T03:09:50.457Z,25.73
2018-03-26T03:15:55.056Z,25.67
2018-03-26T03:22:00.574Z,25.93
2018-03-26T03:28:05.223Z,23.83
2018-03-26T03:34:09.956Z,25.57
2018-03-26T03:40:14.618Z,25.23
2018-03-26T03:46:20.167Z,24.53
2018-03-26T03:52:25.607Z,25.40
2018-03-26T03:58:30.327Z,25.30
2018-03-26T04:04:35.002Z,24.50
2018-03-26T04:10:39.947Z,23.50
2018-03-26T04:16:44.617Z,27.23
2018-03-26T04:22:49.958Z,25.80
2018-03-26T04:28:54.614Z,25.03
2018-03-26T04:34:59.246Z,26.67
2018-03-26T04:41:03.853Z,25.10
2018-03-26T04:47:08.583Z,25.27
2018-03-26T04:53:13.940Z,25.90
2018-03-26T04:59:19.710Z,27.80
2018-03-26T05:05:25.171Z,27.47
2018-03-26T05:11:29.856Z,25.60
2018-03-26T05:17:34.551Z,27.30
2018-03-26T05:23:39.878Z,25.93
2018-03-26T05:29:45.569Z,26.20
2018-03-26T05:35:50.744Z,27.93
2018-03-26T05:41:55.322Z,28.37
2018-03-26T05:47:59.871Z,26.10
2018-03-26T05:54:05.177Z,28.07
2018-03-26T06:00:09.684Z,29.77
2018-03-26T06:06:14.289Z,28.63
2018-03-26T06:12:19.260Z,28.80
2018-03-26T06:18:24.199Z,29.40
2018-03-26T06:24:29.497Z,28.00
2018-03-26T06:30:34.899Z,29.10
2018-03-26T06:43:21.717Z,29.80
2018-03-26T06:49:26.314Z,32.37
2018-03-26T06:55:30.827Z,29.93
2018-03-26T07:01:35.355Z,28.87
2018-03-26T07:07:39.968Z,30.57
2018-03-26T07:13:44.598Z,31.23
2018-03-26T07:19:49.695Z,32.70
2018-03-26T07:25:54.414Z,32.53
2018-03-26T07:31:58.954Z,33.30
2018-03-26T07:38:04.111Z,32.40
2018-03-26T07:44:08.702Z,31.50
2018-03-26T07:50:13.254Z,34.03
2018-03-26T07:56:18.065Z,32.80
2018-03-26T08:02:23.138Z,30.53
2018-03-26T08:08:27.628Z,34.00
2018-03-26T08:14:32.210Z,35.57
2018-03-26T08:20:36.896Z,34.67
2018-03-26T08:26:41.566Z,33.80
2018-03-26T08:32:46.808Z,32.87
2018-03-26T08:38:51.874Z,32.43
2018-03-26T08:44:57.336Z,29.83
2018-03-26T08:51:01.890Z,29.97
2018-03-26T08:57:06.449Z,27.10
2018-03-26T09:03:11.769Z,31.23
2018-03-26T09:09:16.635Z,29.10
2018-03-26T09:15:21.406Z,25.03
2018-03-26T09:21:26.740Z,22.40
2018-03-26T09:27:31.390Z,24.80
2018-03-26T09:33:36.026Z,23.97
2018-03-26T09:39:40.678Z,23.53
2018-03-26T09:45:45.596Z,24.47
2018-03-26T09:51:50.622Z,22.10
2018-03-26T09:57:55.274Z,20.60
2018-03-26T10:03:59.896Z,16.53
2018-03-26T10:10:07.887Z,15.43
2018-03-26T10:16:15.465Z,15.13
2018-03-26T10:22:21.532Z,12.80
2018-03-26T10:28:39.941Z,10.30
2018-03-26T10:34:59.597Z,12.60
2018-03-26T10:41:20.025Z,13.60
2018-03-26T10:54:14.569Z,11.17
2018-03-26T11:13:26.040Z,11.13
2018-03-26T11:19:40.938Z,11.20
2018-03-26T11:25:51.316Z,12.80
2018-03-26T11:31:58.838Z,15.90
2018-03-26T11:38:07.571Z,16.33
2018-03-26T11:44:14.224Z,15.33
2018-03-26T11:50:25.165Z,15.20
2018-03-26T11:56:36.378Z,13.90
2018-03-26T12:02:43.479Z,17.90
2018-03-26T12:08:57.521Z,14.77
2018-03-26T12:25:12.809Z,14.40
2018-03-26T12:31:33.345Z,16.70
2018-03-26T12:37:45.554Z,15.73
2018-03-26T12:44:28.953Z,15.50
2018-03-26T13:04:10.458Z,10.60
2018-03-26T13:10:15.112Z,7.83
2018-03-26T13:16:20.213Z,7.77
2018-03-26T13:22:24.749Z,6.23
2018-03-26T13:28:30.291Z,6.70
2018-03-26T13:34:34.826Z,5.57
2018-03-26T13:40:39.476Z,7.00
2018-03-26T13:46:44.063Z,8.20
2018-03-26T13:52:48.654Z,9.10
2018-03-26T13:58:53.348Z,9.73
2018-03-26T14:04:57.880Z,10.00
2018-03-26T14:11:20.311Z,7.33
2018-03-26T14:17:42.780Z,10.10
2018-03-26T14:23:47.479Z,9.60
2018-03-26T14:29:52.207Z,9.53
2018-03-26T14:35:56.971Z,8.40
2018-03-26T14:42:01.549Z,8.73
2018-03-26T14:48:06.216Z,9.00
2018-03-26T14:54:10.780Z,8.90
2018-03-26T15:00:15.283Z,9.90
2018-03-26T15:06:20.072Z,9.67
2018-03-26T15:12:24.660Z,8.20
2018-03-26T15:18:30.193Z,6.90
2018-03-26T15:24:34.758Z,11.33
2018-03-26T15:30:40.054Z,8.70
2018-03-26T15:36:44.626Z,9.63
2018-03-26T15:42:49.407Z,8.03
2018-03-26T15:48:53.896Z,7.47
2018-03-26T15:54:59.246Z,6.90
2018-03-26T16:01:03.772Z,6.90
2018-03-26T16:07:08.443Z,7.83
2018-03-26T16:13:12.948Z,6.40
2018-03-26T16:19:18.110Z,8.73
2018-03-26T16:25:23.383Z,9.37
2018-03-26T16:31:27.968Z,10.77
2018-03-26T16:37:33.241Z,9.50
2018-03-26T16:43:38.093Z,9.30
2018-03-26T16:49:43.431Z,10.40
2018-03-26T16:55:48.374Z,9.40
2018-03-26T17:01:52.955Z,10.93
2018-03-26T17:07:58.410Z,10.17
2018-03-26T17:14:03.053Z,11.70
2018-03-26T17:20:07.583Z,10.70
2018-03-26T17:26:12.097Z,16.10
2018-03-26T17:32:16.644Z,15.43
2018-03-26T17:38:21.381Z,13.53
2018-03-26T17:44:25.868Z,12.73
2018-03-26T17:50:30.359Z,13.97
2018-03-26T17:56:34.903Z,13.20
2018-03-26T18:02:39.521Z,14.07
2018-03-26T18:08:44.008Z,15.97
2018-03-26T18:14:49.578Z,16.10
2018-03-26T18:20:54.059Z,14.97
2018-03-26T18:26:58.566Z,14.00
2018-03-26T18:33:03.205Z,14.40
2018-03-26T18:39:07.682Z,15.93
2018-03-26T18:45:12.375Z,15.63
2018-03-26T18:51:17.707Z,15.70
2018-03-26T18:57:22.184Z,16.13
2018-03-26T19:03:26.774Z,13.90
2018-03-26T19:09:31.264Z,15.53
2018-03-26T19:15:36.507Z,12.30
2018-03-26T19:21:41.026Z,15.17
2018-03-26T19:27:45.636Z,12.33
2018-03-26T19:33:50.772Z,12.70
2018-03-26T19:39:55.340Z,14.07
2018-03-26T19:45:59.975Z,12.30
2018-03-26T19:52:05.259Z,11.00
2018-03-26T19:58:09.720Z,12.40
2018-03-26T20:04:14.210Z,13.63
2018-03-26T20:10:19.732Z,16.97
2018-03-26T20:16:24.793Z,17.47
2018-03-26T20:22:29.464Z,16.57
2018-03-26T20:28:33.965Z,17.70
2018-03-26T20:34:39.499Z,16.83
2018-03-26T20:40:43.998Z,18.80
2018-03-26T20:46:50.216Z,19.93
2018-03-26T20:52:54.717Z,17.53
2018-03-26T20:58:59.254Z,17.13
2018-03-26T21:05:03.804Z,18.50
2018-03-26T21:11:09.134Z,18.77
2018-03-26T21:17:13.780Z,17.40
2018-03-26T21:23:18.495Z,19.10
2018-03-26T21:29:23.017Z,18.53
2018-03-26T21:35:27.559Z,18.00
2018-03-26T21:41:32.038Z,20.40
2018-03-26T21:47:36.509Z,18.90
2018-03-26T21:53:41.005Z,17.70
2018-03-26T21:59:45.622Z,16.80
2018-03-26T22:05:51.268Z,17.80
2018-03-26T22:11:55.735Z,17.37
2018-03-26T22:18:01.039Z,18.00
2018-03-26T22:24:05.532Z,18.60
2018-03-26T22:30:10.316Z,17.80
2018-03-26T22:36:14.837Z,18.10
2018-03-26T22:42:19.683Z,15.37
2018-03-26T22:48:24.290Z,18.47
2018-03-26T22:54:28.786Z,19.40
2018-03-26T23:00:34.349Z,18.20
2018-03-26T23:06:38.877Z,17.67
2018-03-26T23:12:43.723Z,18.60
2018-03-26T23:18:49.852Z,22.03
2018-03-26T23:24:54.598Z,19.77
2018-03-26T23:30:59.283Z,19.17
2018-03-26T23:37:03.775Z,19.90
2018-03-26T23:43:08.304Z,19.80
2018-03-26T23:49:12.894Z,22.60
2018-03-26T23:55:18.456Z,19.90
